Time;durP1;ratioP1;P1;durP2;ratioP2;P2;SDS_P1;SDS_P2;PMS_P1;PMS_P2;Temp;Humidity;BMP_temperature;BMP_pressure;BME280_temperature;BME280_humidity;BME280_pressure;Samples;Min_cycle;Max_cycle;Signal;HPM_P1;HPM_P2
2024/01/05 00:01:05;;;;;;;6.53;5.35;;;;;;;3.97;100.00;62404.53;5105408;28;20235;-75
2024/01/05 00:03:32;;;;;;;5.72;4.68;;;;;;;3.94;100.00;62398.91;5103881;28;20254;-75
2024/01/05 00:05:59;;;;;;;7.47;5.05;;;;;;;3.91;100.00;62401.38;5098247;28;20220;-76
2024/01/05 00:08:26;;;;;;;7.68;5.60;;;;;;;3.87;100.00;62394.75;5113168;28;20199;-76
2024/01/05 00:10:54;;;;;;;8.38;5.80;;;;;;;3.94;100.00;62406.47;5102922;28;20544;-75
2024/01/05 00:13:22;;;;;;;12.63;5.28;;;;;;;3.92;100.00;62404.91;5112126;28;20203;-75
2024/01/05 00:15:48;;;;;;;7.95;5.38;;;;;;;3.92;100.00;62399.88;5104779;28;20300;-76
2024/01/05 00:18:15;;;;;;;8.98;6.07;;;;;;;3.91;100.00;62395.81;5098555;28;20470;-76
2024/01/05 00:20:43;;;;;;;17.30;8.85;;;;;;;3.95;100.00;62402.47;5102121;28;20228;-75
2024/01/05 00:23:09;;;;;;;7.97;5.85;;;;;;;3.95;100.00;62404.97;5114615;28;20227;-75
2024/01/05 00:25:36;;;;;;;8.43;6.10;;;;;;;3.89;100.00;62393.75;5107904;28;20226;-76
2024/01/05 00:28:05;;;;;;;8.00;5.35;;;;;;;3.88;100.00;62400.28;5116682;28;20199;-76
2024/01/05 00:30:34;;;;;;;6.88;4.05;;;;;;;3.89;100.00;62396.28;5108039;28;20274;-75
2024/01/05 00:33:01;;;;;;;4.63;4.10;;;;;;;3.80;100.00;62390.06;5109231;28;21137;-76
2024/01/05 00:35:28;;;;;;;5.95;4.47;;;;;;;3.85;100.00;62392.19;5106279;28;20215;-75
2024/01/05 00:37:55;;;;;;;5.57;4.95;;;;;;;3.88;100.00;62397.78;5111427;28;20515;-77
2024/01/05 00:40:22;;;;;;;5.13;4.45;;;;;;;3.86;100.00;62393.19;5107716;28;20235;-78
2024/01/05 00:42:49;;;;;;;4.60;3.85;;;;;;;3.86;100.00;62393.72;5107649;28;20227;-76
2024/01/05 00:45:17;;;;;;;6.85;4.20;;;;;;;3.88;100.00;62395.78;5106354;28;20276;-74
2024/01/05 00:47:44;;;;;;;5.32;4.22;;;;;;;3.94;100.00;62401.41;5116474;28;20215;-75
2024/01/05 00:50:11;;;;;;;5.15;3.72;;;;;;;3.92;100.00;62399.38;5109191;28;20232;-75
2024/01/05 00:52:38;;;;;;;5.15;4.25;;;;;;;3.93;100.00;62403.44;5108311;28;20493;-76
2024/01/05 00:55:06;;;;;;;4.15;3.60;;;;;;;3.90;100.00;62397.81;5106108;28;20257;-75
2024/01/05 00:57:33;;;;;;;5.97;3.80;;;;;;;3.91;100.00;62401.38;5107728;28;20260;-76
2024/01/05 01:00:00;;;;;;;3.90;3.60;;;;;;;3.91;100.00;62400.88;5116658;28;20571;-75
2024/01/05 01:02:28;;;;;;;3.88;3.58;;;;;;;3.88;100.00;62400.81;5125961;28;20196;-75
2024/01/05 01:04:55;;;;;;;4.03;3.60;;;;;;;3.90;100.00;62397.31;5114359;28;20227;-76
2024/01/05 01:07:21;;;;;;;10.60;4.00;;;;;;;3.88;100.00;62400.81;5112447;28;20253;-75
2024/01/05 01:09:48;;;;;;;3.83;3.15;;;;;;;3.91;100.00;62400.88;5109317;28;20284;-76
2024/01/05 01:12:15;;;;;;;3.63;3.20;;;;;;;3.91;100.00;62395.81;5108410;28;20196;-76
2024/01/05 01:14:42;;;;;;;4.07;3.50;;;;;;;4.03;100.00;62415.72;5116610;28;20532;-75
2024/01/05 01:17:09;;;;;;;3.78;2.92;;;;;;;4.11;100.00;62418.91;5107014;28;20200;-76
2024/01/05 01:19:37;;;;;;;3.00;2.40;;;;;;;4.27;100.00;62435.38;5102065;28;20223;-75
2024/01/05 01:22:04;;;;;;;6.35;3.90;;;;;;;4.55;100.00;62469.25;5114647;28;20406;-76
2024/01/05 01:24:31;;;;;;;4.13;3.80;;;;;;;4.50;100.00;62459.56;5112919;28;20239;-75
2024/01/05 01:26:58;;;;;;;5.80;3.95;;;;;;;4.50;100.00;62459.06;5106686;28;20208;-76
2024/01/05 01:29:26;;;;;;;4.43;3.95;;;;;;;4.35;100.00;62448.66;5105061;28;20222;-76
2024/01/05 01:31:53;;;;;;;4.13;3.70;;;;;;;4.30;100.00;62438.97;5109566;28;20215;-75
2024/01/05 01:34:20;;;;;;;4.45;4.10;;;;;;;4.22;100.00;62430.22;5110435;28;20305;-75
2024/01/05 01:36:48;;;;;;;8.82;4.80;;;;;;;4.12;100.00;62420.47;5109979;28;20256;-77
2024/01/05 01:39:15;;;;;;;6.43;4.20;;;;;;;4.05;100.00;62415.78;5106170;28;20228;-76
2024/01/05 01:41:43;;;;;;;5.00;4.47;;;;;;;4.09;100.00;62421.91;5107199;28;20400;-75
2024/01/05 01:44:09;;;;;;;4.45;4.13;;;;;;;4.03;100.00;62410.69;5106582;28;20296;-75
2024/01/05 01:46:36;;;;;;;5.00;4.00;;;;;;;4.07;100.00;62414.81;5108316;28;20200;-76
2024/01/05 01:49:03;;;;;;;5.30;4.38;;;;;;;4.01;100.00;62409.16;5104645;28;20220;-74
2024/01/05 01:51:31;;;;;;;4.70;4.40;;;;;;;3.98;100.00;62408.06;5112458;28;20208;-75
2024/01/05 01:54:00;;;;;;;6.45;4.32;;;;;;;3.98;100.00;62410.59;5105216;28;20203;-74
2024/01/05 01:56:27;;;;;;;5.47;4.93;;;;;;;3.97;100.00;62407.53;5106474;28;20208;-75
2024/01/05 01:58:54;;;;;;;6.78;5.10;;;;;;;3.93;100.00;62403.44;5112694;28;20199;-75
2024/01/05 02:01:21;;;;;;;7.65;5.15;;;;;;;3.87;100.00;62394.22;5111051;28;20267;-75
2024/01/05 02:03:48;;;;;;;5.43;4.47;;;;;;;3.87;100.00;62397.25;5105770;28;20232;-75
2024/01/05 02:06:15;;;;;;;7.18;5.47;;;;;;;3.86;100.00;62395.72;5105695;28;20207;-76
2024/01/05 02:08:42;;;;;;;5.43;4.85;;;;;;;3.83;100.00;62392.63;5108898;28;20513;-75
2024/01/05 02:11:10;;;;;;;5.03;3.72;;;;;;;3.82;100.00;62391.59;5107952;28;20220;-76
2024/01/05 02:13:37;;;;;;;3.90;3.53;;;;;;;3.83;100.00;62390.63;5113206;28;20287;-75
2024/01/05 02:16:05;;;;;;;5.03;3.28;;;;;;;3.74;100.00;62383.38;5111095;28;20228;-76
2024/01/05 02:18:32;;;;;;;4.03;3.35;;;;;;;3.71;100.00;62380.81;5105758;28;20249;-75
2024/01/05 02:20:59;;;;;;;4.78;2.75;;;;;;;3.73;100.00;62382.34;5103647;28;20220;-76
2024/01/05 02:23:27;;;;;;;3.20;3.00;;;;;;;3.83;100.00;62392.63;5107598;28;20389;-76
2024/01/05 02:25:55;;;;;;;4.82;3.22;;;;;;;3.84;100.00;62396.19;5112731;28;20281;-75
2024/01/05 02:28:21;;;;;;;3.03;2.78;;;;;;;3.84;100.00;62396.19;5103055;28;20191;-76
2024/01/05 02:30:48;;;;;;;4.38;3.20;;;;;;;3.87;100.00;62394.75;5112545;28;20230;-76
2024/01/05 02:33:15;;;;;;;3.83;3.17;;;;;;;3.88;100.00;62397.78;5106386;28;20204;-75
2024/01/05 02:35:43;;;;;;;2.78;2.42;;;;;;;3.87;100.00;62394.75;5106889;28;20547;-76
2024/01/05 02:38:10;;;;;;;2.95;2.75;;;;;;;3.99;100.00;62412.13;5107366;28;20214;-76
2024/01/05 02:40:38;;;;;;;2.75;2.45;;;;;;;4.00;100.00;62410.13;5103352;28;20220;-74
2024/01/05 02:43:05;;;;;;;4.18;2.38;;;;;;;4.31;100.00;62442.03;5103825;28;20203;-77
2024/01/05 02:45:33;;;;;;;6.25;3.30;;;;;;;4.52;100.00;62461.63;5109895;28;20251;-76
2024/01/05 02:48:00;;;;;;;6.53;3.55;;;;;;;4.63;100.00;62478.00;5107348;28;20196;-74
2024/01/05 02:50:27;;;;;;;6.38;3.38;;;;;;;4.75;100.00;62487.31;5109015;28;20560;-76
2024/01/05 02:52:54;;;;;;;3.70;1.95;;;;;;;4.96;100.00;62508.91;5102220;28;20542;-75
2024/01/05 02:55:21;;;;;;;2.30;2.17;;;;;;;5.00;100.00;62510.53;5101308;28;20251;-77
2024/01/05 02:57:49;;;;;;;4.10;2.25;;;;;;;5.21;100.00;62534.16;5104047;28;20202;-76
2024/01/05 03:00:17;;;;;;;7.88;4.45;;;;;;;5.19;100.00;62535.13;5111380;28;20272;-75
2024/01/05 03:02:44;;;;;;;6.63;4.70;;;;;;;5.09;100.00;62524.31;5106240;28;20216;-74
2024/01/05 03:05:11;;;;;;;5.22;3.63;;;;;;;5.07;100.00;62522.25;5104053;28;20292;-76
2024/01/05 03:07:40;;;;;;;9.18;4.05;;;;;;;5.07;100.00;62520.25;5107445;28;20280;-75
2024/01/05 03:10:08;;;;;;;3.88;3.50;;;;;;;4.90;100.00;62502.25;5105027;28;20227;-74
2024/01/05 03:12:35;;;;;;;4.50;3.58;;;;;;;4.80;100.00;62489.41;5104916;28;20555;-76
2024/01/05 03:15:04;;;;;;;4.18;3.25;;;;;;;4.71;100.00;62486.22;5105394;28;20272;-75
2024/01/05 03:17:31;;;;;;;3.80;3.47;;;;;;;4.64;100.00;62473.47;5110092;28;20473;-75
2024/01/05 03:19:58;;;;;;;5.25;3.40;;;;;;;4.50;100.00;62464.59;5104642;28;20283;-76
2024/01/05 03:22:25;;;;;;;3.58;3.08;;;;;;;4.49;100.00;62458.00;5107959;28;20261;-76
2024/01/05 03:24:53;;;;;;;4.63;3.20;;;;;;;4.50;100.00;62462.06;5108676;28;20280;-76
2024/01/05 03:27:20;;;;;;;4.70;3.28;;;;;;;4.51;100.00;62463.13;5111360;28;20203;-76
2024/01/05 03:29:47;;;;;;;7.55;2.72;;;;;;;4.51;100.00;62462.59;5106386;28;20227;-76
2024/01/05 03:32:15;;;;;;;3.03;2.72;;;;;;;4.47;100.00;62461.50;5107667;28;20218;-76
2024/01/05 03:34:42;;;;;;;3.05;2.83;;;;;;;4.38;100.00;62449.22;5111261;28;20551;-76
2024/01/05 03:37:09;;;;;;;6.85;3.78;;;;;;;4.30;100.00;62438.47;5104444;28;20204;-76
2024/01/05 03:39:36;;;;;;;6.18;4.03;;;;;;;4.26;100.00;62437.38;5104328;28;20243;-75
2024/01/05 03:42:03;;;;;;;4.22;3.83;;;;;;;4.22;100.00;62430.75;5102016;28;20200;-76
2024/01/05 03:44:30;;;;;;;3.38;2.92;;;;;;;4.17;100.00;62430.13;5114554;28;20572;-76
2024/01/05 03:46:57;;;;;;;5.05;3.50;;;;;;;4.14;100.00;62424.53;5107321;28;20219;-77
2024/01/05 03:49:26;;;;;;;2.38;2.20;;;;;;;4.17;100.00;62430.66;5103800;28;20715;-77
2024/01/05 03:51:52;;;;;;;2.30;2.10;;;;;;;4.21;100.00;62434.75;5104100;28;20207;-76
2024/01/05 03:54:19;;;;;;;4.65;2.65;;;;;;;4.29;100.00;62439.97;5106586;28;20248;-77
2024/01/05 03:56:46;;;;;;;4.93;2.05;;;;;;;4.28;100.00;62439.44;5108805;28;20215;-77
2024/01/05 03:59:14;;;;;;;4.88;2.15;;;;;;;4.27;100.00;62440.41;5110087;28;20227;-76
2024/01/05 04:01:44;;;;;;;1.73;1.63;;;;;;;4.37;100.00;62448.19;5114164;28;20199;-76
2024/01/05 04:04:11;;;;;;;1.77;1.67;;;;;;;4.42;100.00;62450.81;5108540;28;20289;-76
2024/01/05 04:06:40;;;;;;;3.83;1.45;;;;;;;4.51;100.00;62465.63;5115475;28;20214;-75
2024/01/05 04:09:09;;;;;;;6.78;2.03;;;;;;;4.51;100.00;62462.59;5114256;28;20375;-74
2024/01/05 04:11:36;;;;;;;1.70;1.33;;;;;;;4.54;100.00;62466.19;5108590;28;20235;-76
2024/01/05 04:14:04;;;;;;;4.20;1.50;;;;;;;4.51;100.00;62460.06;5110427;28;20221;-75
2024/01/05 04:16:31;;;;;;;3.33;1.33;;;;;;;4.50;100.00;62459.56;5112790;28;20256;-76
2024/01/05 04:18:58;;;;;;;4.50;1.80;;;;;;;4.46;100.00;62459.97;5107919;28;20217;-74
2024/01/05 04:21:25;;;;;;;1.77;1.67;;;;;;;4.53;100.00;62462.13;5107970;28;20233;-76
2024/01/05 04:23:55;;;;;;;4.13;1.50;;;;;;;4.48;100.00;62457.50;5117876;28;20203;-76
2024/01/05 04:26:22;;;;;;;2.28;1.40;;;;;;;4.54;100.00;62463.16;5112644;28;20246;-76
2024/01/05 04:28:49;;;;;;;4.00;1.48;;;;;;;4.62;100.00;62468.88;5107973;28;20246;-77
2024/01/05 04:31:15;;;;;;;1.65;1.55;;;;;;;4.56;100.00;62465.75;5106026;28;20212;-77
2024/01/05 04:33:43;;;;;;;1.20;1.13;;;;;;;4.60;100.00;62472.38;5124875;28;20203;-77
2024/01/05 04:36:10;;;;;;;1.67;1.58;;;;;;;4.53;100.00;62462.66;5110955;28;20207;-75
2024/01/05 04:38:37;;;;;;;3.67;2.13;;;;;;;4.47;100.00;62456.47;5107439;28;20497;-76
2024/01/05 04:41:06;;;;;;;2.50;2.03;;;;;;;4.41;100.00;62452.81;5111472;28;20264;-75
2024/01/05 04:43:33;;;;;;;2.13;2.03;;;;;;;4.38;100.00;62452.25;5113834;28;20200;-76
2024/01/05 04:46:00;;;;;;;1.65;1.55;;;;;;;4.33;100.00;62441.56;5118570;28;20569;-76
2024/01/05 04:48:27;;;;;;;2.35;1.63;;;;;;;4.26;100.00;62439.91;5108003;28;20428;-75
2024/01/05 04:50:54;;;;;;;3.17;2.85;;;;;;;4.10;100.00;62412.84;5108382;28;20227;-76
2024/01/05 04:53:21;;;;;;;3.97;2.80;;;;;;;4.05;100.00;62415.25;5109752;28;20253;-76
2024/01/05 04:55:48;;;;;;;5.07;2.50;;;;;;;3.98;100.00;62408.06;5107860;28;20257;-77
2024/01/05 04:58:17;;;;;;;2.70;2.50;;;;;;;3.91;100.00;62403.38;5106830;28;20586;-76
2024/01/05 05:00:44;;;;;;;4.70;3.55;;;;;;;3.87;100.00;62394.22;5118188;28;20220;-76
2024/01/05 05:03:11;;;;;;;4.82;3.38;;;;;;;3.81;100.00;62388.06;5104134;28;20199;-75
2024/01/05 05:05:37;;;;;;;3.95;3.35;;;;;;;3.68;100.00;62379.72;5107629;28;20247;-76
2024/01/05 05:08:05;;;;;;;4.00;3.60;;;;;;;3.63;100.00;62372.06;5105977;28;20226;-76
2024/01/05 05:10:32;;;;;;;3.95;3.50;;;;;;;3.61;100.00;62370.03;5119731;28;20216;-75
2024/01/05 05:12:59;;;;;;;3.92;3.05;;;;;;;3.55;100.00;62364.34;5107405;28;20477;-77
2024/01/05 05:15:27;;;;;;;4.38;3.58;;;;;;;3.47;100.00;62358.63;5107636;28;20582;-76
2024/01/05 05:17:54;;;;;;;7.47;3.80;;;;;;;3.35;100.00;62346.81;5107416;28;20266;-75
2024/01/05 05:20:21;;;;;;;5.47;3.58;;;;;;;3.18;100.00;62328.81;5108405;28;20286;-78
2024/01/05 05:22:48;;;;;;;3.53;3.22;;;;;;;3.13;100.00;62319.16;5107458;28;20208;-78
2024/01/05 05:25:16;;;;;;;4.75;3.63;;;;;;;2.97;100.00;62302.72;5108871;28;20243;-77
2024/01/05 05:27:43;;;;;;;4.28;3.55;;;;;;;2.99;100.00;62304.78;5105576;28;20200;-77
2024/01/05 05:30:10;;;;;;;5.45;2.97;;;;;;;2.97;100.00;62300.22;5108625;28;20602;-77
2024/01/05 05:32:38;;;;;;;6.07;3.75;;;;;;;2.95;100.00;62302.69;5120533;28;20441;-74
2024/01/05 05:35:06;;;;;;;7.05;3.80;;;;;;;2.95;100.00;62305.19;5117387;28;20447;-76
2024/01/05 05:37:33;;;;;;;3.92;3.58;;;;;;;2.93;100.00;62298.63;5108066;28;20208;-75
2024/01/05 05:40:00;;;;;;;4.88;4.28;;;;;;;2.95;100.00;62308.22;5106776;28;20224;-76
2024/01/05 05:42:27;;;;;;;6.72;4.00;;;;;;;2.96;100.00;62306.22;5105056;28;20196;-74
2024/01/05 05:44:54;;;;;;;11.40;3.97;;;;;;;2.87;100.00;62291.94;5111567;28;20238;-75
2024/01/05 05:47:21;;;;;;;4.00;3.60;;;;;;;2.90;100.00;62295.03;5114398;28;20226;-77
2024/01/05 05:49:49;;;;;;;4.00;3.70;;;;;;;2.84;100.00;62289.38;5105310;28;20226;-75
2024/01/05 05:52:16;;;;;;;3.63;3.28;;;;;;;2.82;100.00;62292.34;5118063;28;20211;-75
2024/01/05 05:54:44;;;;;;;3.67;3.42;;;;;;;2.90;100.00;62298.03;5106270;28;20224;-77
2024/01/05 05:57:12;;;;;;;4.07;3.55;;;;;;;2.99;100.00;62302.25;5106892;28;20479;-75
2024/01/05 05:59:38;;;;;;;5.88;3.60;;;;;;;2.87;100.00;62292.44;5107812;28;20250;-75
2024/01/05 06:02:05;;;;;;;6.43;4.00;;;;;;;2.99;100.00;62304.78;5106330;28;20267;-75
2024/01/05 06:04:32;;;;;;;6.28;3.72;;;;;;;3.05;100.00;62320.50;5106590;28;20432;-75
2024/01/05 06:07:00;;;;;;;8.38;4.68;;;;;;;3.07;100.00;62315.00;5112324;28;20204;-75
2024/01/05 06:09:28;;;;;;;6.50;3.95;;;;;;;3.12;100.00;62320.16;5114905;28;20223;-75
2024/01/05 06:11:55;;;;;;;5.88;4.25;;;;;;;3.20;100.00;62326.38;5108156;28;20249;-77
2024/01/05 06:14:22;;;;;;;11.88;6.93;;;;;;;3.21;100.00;62329.41;5105646;28;20226;-77
2024/01/05 06:16:48;;;;;;;9.43;4.72;;;;;;;3.25;100.00;62333.50;5106283;28;21307;-76
2024/01/05 06:19:15;;;;;;;8.73;3.60;;;;;;;3.31;100.00;62337.66;5115988;28;20257;-76
2024/01/05 06:21:42;;;;;;;8.95;3.67;;;;;;;3.40;100.00;62351.97;5104938;28;20206;-76
2024/01/05 06:24:11;;;;;;;4.45;2.80;;;;;;;3.50;100.00;62357.19;5105962;28;20231;-77
2024/01/05 06:26:38;;;;;;;7.15;3.35;;;;;;;3.57;100.00;62366.41;5106452;28;20238;-77
2024/01/05 06:29:05;;;;;;;4.25;3.30;;;;;;;3.62;100.00;62366.00;5106090;28;20223;-75
2024/01/05 06:31:32;;;;;;;6.28;4.10;;;;;;;3.63;100.00;62369.53;5100114;28;20219;-76
2024/01/05 06:33:58;;;;;;;8.40;5.57;;;;;;;3.61;100.00;62370.53;5106205;28;20210;-76
2024/01/05 06:36:25;;;;;;;7.20;4.13;;;;;;;3.60;100.00;62374.53;5107731;28;20204;-75
2024/01/05 06:38:52;;;;;;;6.70;3.63;;;;;;;3.75;100.00;62381.88;5101754;28;20219;-74
2024/01/05 06:41:21;;;;;;;5.60;3.78;;;;;;;3.80;100.00;62387.53;5105453;28;20196;-76
2024/01/05 06:43:47;;;;;;;3.58;2.88;;;;;;;3.81;100.00;62388.59;5106232;28;20203;-75
2024/01/05 06:46:15;;;;;;;4.50;3.60;;;;;;;3.92;100.00;62404.91;5106416;28;20235;-76
2024/01/05 06:48:42;;;;;;;3.40;3.05;;;;;;;4.02;100.00;62412.19;5107551;28;20534;-77
2024/01/05 06:51:09;;;;;;;4.00;2.72;;;;;;;4.07;100.00;62419.84;5112088;28;20262;-77
2024/01/05 06:53:36;;;;;;;3.67;3.33;;;;;;;4.08;100.00;62418.34;5109871;28;20212;-76
2024/01/05 06:56:04;;;;;;;6.65;3.22;;;;;;;4.16;100.00;62427.09;5106954;28;20291;-75
2024/01/05 06:58:34;;;;;;;11.85;5.75;;;;;;;4.23;100.00;62434.28;5104137;28;20200;-75
2024/01/05 07:01:01;;;;;;;14.05;6.90;;;;;;;4.27;100.00;62437.91;5105783;28;20261;-75
2024/01/05 07:03:28;;;;;;;5.85;4.32;;;;;;;4.36;100.00;62444.66;5103663;28;20207;-76
2024/01/05 07:05:55;;;;;;;9.90;4.05;;;;;;;4.42;100.00;62451.31;5103931;28;20235;-77
2024/01/05 07:08:21;;;;;;;5.22;2.90;;;;;;;4.53;100.00;62465.19;5116396;28;20199;-75
2024/01/05 07:10:48;;;;;;;4.75;3.78;;;;;;;4.62;100.00;62471.41;5105242;28;20224;-75
2024/01/05 07:13:15;;;;;;;4.40;3.47;;;;;;;4.67;100.00;62477.06;5103611;28;20371;-76
2024/01/05 07:15:44;;;;;;;8.95;5.28;;;;;;;4.76;100.00;62482.78;5096092;28;20224;-77
2024/01/05 07:18:11;;;;;;;7.88;5.07;;;;;;;5.08;100.00;62518.75;5095031;28;20682;-76
2024/01/05 07:20:37;;;;;;;9.38;5.03;;;;;;;5.32;100.00;62548.00;5095662;28;20224;-76
2024/01/05 07:23:04;;;;;;;9.20;4.55;;;;;;;5.87;100.00;62604.69;5098339;28;20196;-75
2024/01/05 07:25:32;;;;;;;6.30;4.50;;;;;;;6.12;100.00;62622.38;5104068;28;20308;-76
2024/01/05 07:27:59;;;;;;;5.97;3.30;;;;;;;6.40;100.00;62656.28;5094920;28;20489;-76
2024/01/05 07:30:25;;;;;;;7.22;4.78;;;;;;;6.34;100.00;62647.56;5098642;28;20253;-76
2024/01/05 07:32:54;;;;;;;6.63;4.47;;;;;;;6.33;100.00;62652.13;5097958;28;20495;-75
2024/01/05 07:35:21;;;;;;;7.72;4.82;;;;;;;6.27;100.00;62645.94;5100284;28;20220;-76
2024/01/05 07:37:48;;;;;;;5.15;2.92;;;;;;;6.12;100.00;62627.41;5101013;28;20458;-77
2024/01/05 07:40:16;;;;;;;4.63;2.38;;;;;;;6.10;100.00;62623.34;5103503;28;20216;-76
2024/01/05 07:42:43;;;;;;;3.80;2.17;;;;;;;6.03;100.00;62618.66;5103354;28;20204;-77
2024/01/05 07:45:10;;;;;;;3.58;2.15;;;;;;;6.11;100.00;62621.34;5099291;28;20224;-76
2024/01/05 07:47:37;;;;;;;10.27;2.45;;;;;;;6.02;100.00;62617.63;5092751;28;20200;-76
2024/01/05 07:50:06;;;;;;;3.42;2.22;;;;;;;6.15;100.00;62627.97;5098355;28;20276;-76
2024/01/05 07:52:33;;;;;;;2.30;1.90;;;;;;;6.21;100.00;62632.16;5091521;28;20220;-76
2024/01/05 07:55:00;;;;;;;3.75;2.10;;;;;;;6.29;100.00;62645.47;5080034;28;20220;-76
2024/01/05 07:57:27;;;;;;;5.22;2.38;;;;;;;6.34;100.00;62645.03;5081430;28;20197;-75
2024/01/05 07:59:53;;;;;;;4.53;2.97;;;;;;;6.52;100.00;62666.13;5083715;28;20252;-77
2024/01/05 08:02:20;;;;;;;4.13;2.15;;;;;;;6.64;100.00;62678.50;5083706;28;20197;-77
2024/01/05 08:04:47;;;;;;;2.92;2.55;;;;;;;6.54;100.00;62671.22;5081669;28;20224;-76
2024/01/05 08:07:17;;;;;;;4.72;2.38;;;;;;;6.59;100.00;62678.41;5084315;28;20566;-76
2024/01/05 08:09:44;;;;;;;2.17;2.03;;;;;;;6.63;100.00;62682.53;5084565;28;20219;-76
2024/01/05 08:12:11;;;;;;;3.17;2.67;;;;;;;6.71;100.00;62688.25;5084097;28;20201;-76
2024/01/05 08:14:38;;;;;;;11.15;2.80;;;;;;;6.67;100.00;62689.19;5081887;28;20374;-76
2024/01/05 08:17:05;;;;;;;3.53;2.88;;;;;;;6.75;100.00;62692.38;5089478;28;20211;-77
2024/01/05 08:19:32;;;;;;;5.88;3.42;;;;;;;6.81;100.00;62703.63;5082373;28;20223;-77
2024/01/05 08:21:59;;;;;;;5.32;2.28;;;;;;;6.86;100.00;62703.72;5077465;28;20197;-76
2024/01/05 08:24:27;;;;;;;3.63;2.67;;;;;;;6.86;100.00;62701.72;5080215;28;20220;-77
2024/01/05 08:26:54;;;;;;;4.90;2.63;;;;;;;6.89;100.00;62709.88;5083351;28;20331;-76
2024/01/05 08:29:22;;;;;;;3.78;2.40;;;;;;;6.82;100.00;62697.06;5082273;28;20230;-76
2024/01/05 08:31:49;;;;;;;2.08;1.95;;;;;;;7.00;100.00;62720.69;5080063;28;20204;-77
2024/01/05 08:34:17;;;;;;;4.57;1.65;;;;;;;7.03;100.00;62724.31;5081723;28;20217;-76
2024/01/05 08:36:44;;;;;;;1.60;1.50;;;;;;;7.16;100.00;62732.16;5084449;28;20200;-77
2024/01/05 08:39:11;;;;;;;3.13;1.92;;;;;;;7.24;100.00;62739.88;5081093;28;20251;-77
2024/01/05 08:41:39;;;;;;;5.15;2.25;;;;;;;7.43;100.00;62764.56;5084662;28;20242;-76
2024/01/05 08:44:06;;;;;;;2.10;2.00;;;;;;;7.58;100.00;62777.50;5088791;28;20255;-77
2024/01/05 08:46:33;;;;;;;2.55;1.90;;;;;;;7.61;100.00;62778.06;5092105;28;20236;-76
2024/01/05 08:49:00;;;;;;;6.50;2.35;;;;;;;7.77;100.00;62800.16;5088499;28;20204;-76
2024/01/05 08:51:27;;;;;;;6.57;2.05;;;;;;;7.85;100.00;62805.38;5089012;28;20209;-76
2024/01/05 08:53:55;;;;;;;3.97;1.90;;;;;;;8.00;100.00;62823.91;5086146;28;20203;-77
2024/01/05 08:56:22;;;;;;;3.00;1.95;;;;;;;8.02;100.00;62820.91;5088295;28;20200;-77
2024/01/05 08:58:51;;;;;;;3.60;2.47;;;;;;;8.12;100.00;62838.31;5090492;28;20208;-78
2024/01/05 09:01:18;;;;;;;2.17;1.90;;;;;;;8.22;100.00;62838.50;5086011;28;20241;-77
2024/01/05 09:03:45;;;;;;;6.03;2.00;;;;;;;8.38;100.00;62862.66;5085497;28;20452;-77
2024/01/05 09:06:12;;;;;;;1.60;1.50;;;;;;;8.56;100.00;62876.19;5087215;28;20342;-77
2024/01/05 09:08:39;;;;;;;1.83;1.58;;;;;;;8.63;100.00;62890.53;5087677;28;20270;-76
2024/01/05 09:11:06;;;;;;;3.47;1.50;;;;;;;8.74;100.00;62899.84;5088601;28;20224;-76
2024/01/05 09:13:33;;;;;;;2.42;2.00;;;;;;;8.91;100.00;62919.44;5090487;28;20204;-74
2024/01/05 09:16:01;;;;;;;2.20;1.85;;;;;;;9.06;100.00;62930.38;5088776;28;20258;-76
2024/01/05 09:18:33;;;;;;;4.05;2.03;;;;;;;9.07;99.25;62933.97;5084839;28;20196;-76
2024/01/05 09:21:00;;;;;;;6.40;2.30;;;;;;;8.92;98.96;62918.44;5087420;28;20224;-76
2024/01/05 09:23:27;;;;;;;3.67;1.80;;;;;;;8.97;100.00;62915.50;5087365;28;20205;-76
2024/01/05 09:25:54;;;;;;;5.75;2.05;;;;;;;8.98;100.00;62924.66;5085337;28;20229;-76
2024/01/05 09:28:21;;;;;;;3.25;2.70;;;;;;;8.87;100.00;62915.31;5087606;28;20205;-78
2024/01/05 09:30:48;;;;;;;2.95;2.60;;;;;;;8.82;100.00;62907.59;5087386;28;20232;-77
2024/01/05 09:33:17;;;;;;;3.70;2.83;;;;;;;8.92;100.00;62915.91;5085772;28;20246;-76
2024/01/05 09:35:44;;;;;;;6.45;3.38;;;;;;;8.79;100.00;62907.56;5076839;28;20229;-75
2024/01/05 09:38:11;;;;;;;6.88;3.30;;;;;;;8.82;100.00;62902.53;5087245;28;20245;-77
2024/01/05 09:40:38;;;;;;;8.07;4.75;;;;;;;8.65;100.00;62890.56;5088732;28;20236;-77
2024/01/05 09:43:07;;;;;;;19.33;5.55;;;;;;;8.78;100.00;62896.38;5085700;28;20275;-76
2024/01/05 09:45:35;;;;;;;10.10;6.90;;;;;;;8.96;100.00;62922.06;5084512;28;20402;-77
2024/01/05 09:48:02;;;;;;;9.25;7.25;;;;;;;8.97;100.00;62925.66;5086858;28;20415;-77
2024/01/05 09:50:31;;;;;;;11.93;8.43;;;;;;;8.98;100.00;62926.69;5086656;28;20223;-77
2024/01/05 09:52:58;;;;;;;10.65;8.07;;;;;;;9.07;100.00;62925.81;5083899;28;20200;-77
2024/01/05 09:55:25;;;;;;;13.68;7.28;;;;;;;9.17;100.00;62943.78;5087635;28;20295;-77
2024/01/05 09:57:53;;;;;;;10.63;6.00;;;;;;;9.13;100.00;62937.09;5088334;28;20208;-77
2024/01/05 10:00:20;;;;;;;10.57;6.63;;;;;;;9.12;100.00;62931.00;5085449;28;20271;-76
2024/01/05 10:02:50;;;;;;;7.13;4.72;;;;;;;9.01;100.00;62922.69;5084796;28;20510;-76
2024/01/05 10:05:17;;;;;;;5.90;4.60;;;;;;;9.18;100.00;62942.78;5086520;28;20224;-76
2024/01/05 10:07:46;;;;;;;10.32;4.80;;;;;;;9.30;100.00;62962.31;5083418;28;20255;-77
2024/01/05 10:10:13;;;;;;;8.63;4.65;;;;;;;9.41;100.00;62962.97;5092991;28;20243;-77
2024/01/05 10:12:40;;;;;;;5.60;3.53;;;;;;;9.44;100.00;62968.63;5086059;28;20223;-77
2024/01/05 10:15:08;;;;;;;8.57;3.65;;;;;;;9.48;99.35;62975.31;5083695;28;20595;-77
2024/01/05 10:17:35;;;;;;;4.35;2.88;;;;;;;9.50;97.18;62980.44;5087096;28;20201;-76
2024/01/05 10:20:13;;;;;;;4.20;2.90;;;;;;;9.56;96.20;62983.59;5082940;28;20221;-77
2024/01/05 10:22:41;;;;;;;2.85;2.35;;;;;;;9.60;94.52;62982.63;5086357;28;20212;-75
2024/01/05 10:25:16;;;;;;;3.00;2.72;;;;;;;9.71;92.58;62996.56;5085771;28;20293;-77
2024/01/05 10:27:43;;;;;;;4.07;2.60;;;;;;;9.88;94.44;63014.66;5085234;28;20358;-76
2024/01/05 10:30:11;;;;;;;4.25;2.00;;;;;;;10.08;92.79;63034.81;5084535;28;20213;-77
2024/01/05 10:32:39;;;;;;;2.70;2.50;;;;;;;10.00;89.27;63024.00;5084179;28;20213;-77
2024/01/05 10:35:07;;;;;;;4.20;1.98;;;;;;;10.15;90.50;63044.63;5081121;28;20216;-76
2024/01/05 10:37:34;;;;;;;3.60;2.25;;;;;;;10.11;86.47;63037.94;5083816;28;20280;-76
2024/01/05 10:40:04;;;;;;;4.00;2.15;;;;;;;10.20;88.73;63049.78;5083409;28;20240;-77
2024/01/05 10:42:34;;;;;;;2.45;2.25;;;;;;;10.36;86.69;63066.34;5080651;28;20413;-77
2024/01/05 10:45:01;;;;;;;3.85;3.53;;;;;;;10.27;86.54;63055.00;5087036;28;20405;-77
2024/01/05 10:47:28;;;;;;;3.92;2.70;;;;;;;10.36;87.90;63063.81;5083178;28;20236;-76
2024/01/05 10:49:56;;;;;;;4.90;2.92;;;;;;;10.54;85.55;63082.44;5085138;28;20217;-77
2024/01/05 10:52:23;;;;;;;2.50;2.28;;;;;;;10.21;83.35;63053.38;5086989;28;20212;-77
2024/01/05 10:54:52;;;;;;;4.15;3.20;;;;;;;10.13;90.17;63040.03;5085962;28;20230;-77
2024/01/05 10:57:19;;;;;;;4.25;2.72;;;;;;;10.39;86.99;63062.34;5085615;28;20434;-77
2024/01/05 10:59:47;;;;;;;5.07;2.88;;;;;;;10.52;86.45;63080.38;5086560;28;20470;-77
2024/01/05 11:02:19;;;;;;;6.25;3.15;;;;;;;10.51;85.16;63076.28;5084839;28;20203;-77
2024/01/05 11:04:46;;;;;;;3.40;3.10;;;;;;;10.62;86.48;63092.75;5086237;28;20212;-76
2024/01/05 11:07:14;;;;;;;3.45;3.13;;;;;;;10.65;83.59;63088.22;5086220;28;20228;-76
2024/01/05 11:09:43;;;;;;;4.07;2.90;;;;;;;10.61;84.29;63092.25;5084112;28;20216;-77
2024/01/05 11:12:12;;;;;;;4.47;2.65;;;;;;;10.45;82.81;63071.09;5085275;28;20196;-77
2024/01/05 11:14:49;;;;;;;3.38;2.40;;;;;;;10.42;83.98;63075.13;5082999;28;20224;-77
2024/01/05 11:17:41;;;;;;;7.57;2.72;;;;;;;10.53;84.06;63081.41;5082590;28;20209;-79
2024/01/05 11:20:32;;;;;;;6.90;3.70;;;;;;;10.86;91.03;63115.56;5085036;28;20230;-78
2024/01/05 11:22:59;;;;;;;5.18;2.85;;;;;;;11.22;86.43;63150.28;5083246;28;20242;-78
2024/01/05 11:25:26;;;;;;;8.95;2.40;;;;;;;11.62;81.60;63196.31;5082655;28;20216;-77
2024/01/05 11:27:53;;;;;;;3.97;2.90;;;;;;;11.77;78.49;63208.81;5084073;28;20254;-78
2024/01/05 11:30:44;;;;;;;2.95;2.60;;;;;;;11.98;74.86;63228.00;5085428;28;20440;-77
2024/01/05 11:33:35;;;;;;;2.67;2.45;;;;;;;12.12;73.79;63245.06;5079733;28;20197;-77
2024/01/05 11:36:02;;;;;;;5.28;2.92;;;;;;;11.97;69.52;63234.63;5073361;28;20265;-78